createdAt,value
2018-07-22T00:02:21.527Z,11.28
2018-07-22T00:04:49.827Z,9.67
2018-07-22T00:07:18.032Z,8.90
2018-07-22T00:09:46.362Z,10.83
2018-07-22T00:12:14.596Z,9.63
2018-07-22T00:14:42.876Z,9.87
2018-07-22T00:17:11.084Z,9.60
2018-07-22T00:19:39.371Z,9.73
2018-07-22T00:22:07.645Z,10.50
2018-07-22T00:24:35.922Z,10.20
2018-07-22T00:27:04.155Z,8.77
2018-07-22T00:29:32.420Z,11.40
2018-07-22T00:32:00.643Z,8.67
2018-07-22T00:34:28.965Z,10.98
2018-07-22T00:36:57.171Z,9.47
2018-07-22T00:39:25.403Z,9.10
2018-07-22T00:41:53.712Z,9.27
2018-07-22T00:44:21.960Z,8.97
2018-07-22T00:46:50.228Z,11.57
2018-07-22T00:49:18.466Z,10.70
2018-07-22T00:51:46.734Z,9.43
2018-07-22T00:54:14.973Z,9.37
2018-07-22T00:56:43.240Z,8.80
2018-07-22T00:59:11.482Z,8.83
2018-07-22T01:01:39.728Z,8.80
2018-07-22T01:04:08.019Z,11.28
2018-07-22T01:06:36.299Z,8.90
2018-07-22T01:09:07.632Z,9.17
2018-07-22T01:11:35.923Z,8.70
2018-07-22T01:14:04.229Z,9.60
2018-07-22T01:16:32.531Z,9.73
2018-07-22T01:19:00.767Z,8.27
2018-07-22T01:21:29.037Z,9.43
2018-07-22T01:23:57.347Z,11.15
2018-07-22T01:26:25.621Z,8.80
2018-07-22T01:28:53.807Z,9.70
2018-07-22T01:31:22.126Z,10.95
2018-07-22T01:33:50.374Z,10.30
2018-07-22T01:36:18.631Z,10.00
2018-07-22T01:38:46.931Z,11.50
2018-07-22T01:41:15.195Z,9.67
2018-07-22T01:43:43.475Z,11.27
2018-07-22T01:46:11.770Z,11.30
2018-07-22T01:48:40.073Z,12.50
2018-07-22T01:51:08.594Z,10.57
2018-07-22T01:53:36.929Z,9.47
2018-07-22T01:56:05.389Z,11.13
2018-07-22T01:58:33.617Z,10.33
2018-07-22T02:01:01.896Z,13.22
2018-07-22T02:03:30.167Z,11.13
2018-07-22T02:05:58.416Z,11.77
2018-07-22T02:08:26.678Z,11.73
2018-07-22T02:10:54.881Z,11.17
2018-07-22T02:13:23.154Z,11.87
2018-07-22T02:15:51.416Z,12.40
2018-07-22T02:18:19.688Z,12.70
2018-07-22T02:20:47.942Z,13.13
2018-07-22T02:23:16.280Z,15.40
2018-07-22T02:25:44.526Z,12.43
2018-07-22T02:28:12.759Z,11.97
2018-07-22T02:30:41.024Z,13.23
2018-07-22T02:33:09.259Z,13.63
2018-07-22T02:35:37.511Z,13.17
2018-07-22T02:38:05.919Z,13.77
2018-07-22T02:40:34.188Z,13.60
2018-07-22T02:43:02.876Z,13.30
2018-07-22T02:45:31.164Z,14.73
2018-07-22T02:47:59.400Z,13.70
2018-07-22T02:50:27.637Z,13.67
2018-07-22T02:52:55.980Z,13.37
2018-07-22T02:55:24.192Z,13.90
2018-07-22T02:57:52.470Z,15.23
2018-07-22T03:00:20.736Z,13.60
2018-07-22T03:02:48.968Z,13.97
2018-07-22T03:05:17.263Z,13.40
2018-07-22T03:07:45.515Z,14.37
2018-07-22T03:10:13.820Z,17.20
2018-07-22T03:12:42.183Z,14.93
2018-07-22T03:15:10.470Z,14.80
2018-07-22T03:17:38.709Z,14.63
2018-07-22T03:20:07.070Z,14.73
2018-07-22T03:22:35.428Z,14.93
2018-07-22T03:25:03.652Z,16.27
2018-07-22T03:27:31.884Z,18.17
2018-07-22T03:30:00.184Z,14.70
2018-07-22T03:32:28.460Z,14.63
2018-07-22T03:34:56.699Z,14.30
2018-07-22T03:37:24.999Z,15.13
2018-07-22T03:39:53.240Z,15.10
2018-07-22T03:42:21.515Z,15.47
2018-07-22T03:44:49.783Z,14.43
2018-07-22T03:47:18.084Z,14.43
2018-07-22T03:49:46.272Z,13.90
2018-07-22T03:52:14.550Z,14.10
2018-07-22T03:54:42.818Z,16.50
2018-07-22T03:57:11.139Z,16.50
2018-07-22T03:59:40.985Z,14.10
2018-07-22T04:02:09.254Z,13.17
2018-07-22T04:04:37.493Z,12.40
2018-07-22T04:07:05.813Z,13.27
2018-07-22T04:09:33.988Z,13.70
2018-07-22T04:12:02.978Z,13.53
2018-07-22T04:14:31.185Z,12.90
2018-07-22T04:16:59.455Z,13.70
2018-07-22T04:19:27.724Z,12.40
2018-07-22T04:21:55.997Z,13.07
2018-07-22T04:24:24.273Z,13.97
2018-07-22T04:26:52.512Z,13.07
2018-07-22T04:29:20.792Z,13.67
2018-07-22T04:31:49.027Z,13.37
2018-07-22T04:34:17.304Z,13.03
2018-07-22T04:36:45.514Z,13.23
2018-07-22T04:39:13.819Z,14.00
2018-07-22T04:41:42.059Z,14.03
2018-07-22T04:44:10.330Z,12.93
2018-07-22T04:46:38.566Z,15.55
2018-07-22T04:49:06.855Z,13.57
2018-07-22T04:51:35.102Z,13.37
2018-07-22T04:54:03.787Z,13.30
2018-07-22T04:56:32.028Z,12.10
2018-07-22T04:59:00.305Z,12.17
2018-07-22T05:01:28.537Z,12.77
2018-07-22T05:03:56.811Z,12.63
2018-07-22T05:06:25.055Z,12.47
2018-07-22T05:08:53.361Z,12.13
2018-07-22T05:11:21.607Z,12.30
2018-07-22T05:13:49.842Z,12.00
2018-07-22T05:16:18.117Z,12.07
2018-07-22T05:18:46.356Z,13.20
2018-07-22T05:21:14.614Z,11.90
2018-07-22T05:23:42.915Z,12.47
2018-07-22T05:26:11.186Z,11.87
2018-07-22T05:28:39.419Z,11.73
2018-07-22T05:31:07.687Z,11.30
2018-07-22T05:33:35.915Z,10.03
2018-07-22T05:36:04.181Z,10.03
2018-07-22T05:38:32.460Z,10.20
2018-07-22T05:41:00.751Z,10.80
2018-07-22T05:43:29.018Z,10.87
2018-07-22T05:45:57.298Z,13.13
2018-07-22T05:48:25.533Z,11.43
2018-07-22T05:50:53.797Z,11.37
2018-07-22T05:53:22.019Z,12.50
2018-07-22T05:55:50.244Z,10.10
2018-07-22T05:58:18.517Z,11.40
2018-07-22T06:00:46.756Z,8.97
2018-07-22T06:03:15.034Z,9.40
2018-07-22T06:05:43.248Z,9.63
2018-07-22T06:08:11.547Z,9.37
2018-07-22T06:10:39.787Z,9.43
2018-07-22T06:13:08.056Z,8.70
2018-07-22T06:15:36.287Z,7.43
2018-07-22T06:18:04.612Z,7.00
2018-07-22T06:20:32.888Z,6.47
2018-07-22T06:23:01.148Z,6.60
2018-07-22T06:25:29.380Z,7.47
2018-07-22T06:27:57.647Z,6.97
2018-07-22T06:30:26.960Z,6.70
2018-07-22T06:32:55.264Z,5.63
2018-07-22T06:35:23.505Z,6.20
2018-07-22T06:37:51.792Z,5.87
2018-07-22T06:40:20.022Z,4.73
2018-07-22T06:42:48.288Z,5.37
2018-07-22T06:45:16.521Z,5.10
2018-07-22T06:47:44.781Z,5.10
2018-07-22T06:50:13.062Z,5.17
2018-07-22T06:52:41.301Z,5.85
2018-07-22T06:55:09.560Z,4.93
2018-07-22T06:57:37.794Z,5.00
2018-07-22T07:00:06.289Z,5.27
2018-07-22T07:02:34.537Z,5.93
2018-07-22T07:05:02.877Z,6.03
2018-07-22T07:07:31.060Z,6.60
2018-07-22T07:09:59.327Z,6.00
2018-07-22T07:12:27.565Z,7.27
2018-07-22T07:14:55.840Z,6.30
2018-07-22T07:17:24.071Z,6.73
2018-07-22T07:19:52.341Z,8.10
2018-07-22T07:22:20.572Z,6.87
2018-07-22T07:24:48.872Z,6.47
2018-07-22T07:27:17.101Z,9.50
2018-07-22T07:29:45.352Z,7.60
2018-07-22T07:32:13.636Z,6.53
2018-07-22T07:34:41.904Z,6.50
2018-07-22T07:37:10.134Z,6.80
2018-07-22T07:39:38.423Z,7.07
2018-07-22T07:42:06.784Z,6.90
2018-07-22T07:44:35.371Z,8.10
2018-07-22T07:47:03.635Z,8.67
2018-07-22T07:49:31.882Z,10.32
2018-07-22T07:52:00.151Z,9.57
2018-07-22T07:54:26.938Z,8.53
2018-07-22T07:56:53.696Z,8.73
2018-07-22T07:59:20.423Z,9.33
2018-07-22T08:01:47.179Z,9.83
2018-07-22T08:04:13.907Z,10.53
2018-07-22T08:06:40.673Z,10.47
2018-07-22T08:09:08.427Z,11.17
2018-07-22T08:11:35.332Z,11.43
2018-07-22T08:14:02.191Z,13.43
2018-07-22T08:16:28.943Z,13.70
2018-07-22T08:18:56.440Z,11.53
2018-07-22T08:23:49.435Z,11.30
2018-07-22T08:26:16.337Z,10.83
2018-07-22T08:29:37.905Z,9.90
2018-07-22T08:32:05.467Z,9.23
2018-07-22T08:34:32.207Z,10.17
2018-07-22T08:36:59.279Z,10.53
2018-07-22T08:39:27.227Z,10.37
2018-07-22T08:41:54.604Z,9.77
2018-07-22T08:44:21.442Z,12.05
2018-07-22T08:46:48.176Z,11.03
2018-07-22T08:49:14.931Z,11.00
2018-07-22T08:51:41.713Z,11.10
2018-07-22T08:54:08.483Z,10.87
2018-07-22T08:56:35.203Z,10.50
2018-07-22T08:59:03.269Z,11.37
2018-07-22T09:01:30.456Z,13.13
2018-07-22T09:03:57.241Z,11.43
2018-07-22T09:06:24.575Z,13.03
2018-07-22T09:08:51.363Z,10.93
2018-07-22T09:11:18.088Z,13.38
2018-07-22T09:13:44.847Z,11.83
2018-07-22T09:16:11.662Z,10.97
2018-07-22T09:18:38.988Z,10.60
2018-07-22T09:21:05.848Z,10.73
2018-07-22T09:23:32.828Z,11.33
2018-07-22T09:25:59.557Z,11.97
2018-07-22T09:28:26.280Z,11.87
2018-07-22T09:30:53.075Z,11.47
2018-07-22T09:33:19.799Z,11.60
2018-07-22T09:35:46.893Z,11.43
2018-07-22T09:38:13.613Z,11.80
2018-07-22T09:40:40.476Z,11.27
2018-07-22T09:43:07.202Z,12.93
2018-07-22T09:45:34.142Z,11.73
2018-07-22T09:48:00.928Z,12.73
2018-07-22T09:50:29.956Z,13.68
2018-07-22T09:52:56.719Z,10.93
2018-07-22T09:55:23.480Z,11.20
2018-07-22T09:57:50.215Z,10.70
2018-07-22T10:00:22.832Z,11.77
2018-07-22T10:02:49.571Z,11.43
2018-07-22T10:05:16.312Z,12.70
2018-07-22T10:07:43.079Z,13.10
2018-07-22T10:10:09.807Z,12.00
2018-07-22T10:12:36.571Z,13.40
2018-07-22T10:15:03.464Z,12.97
2018-07-22T10:17:30.275Z,12.57
2018-07-22T10:19:57.056Z,13.20
2018-07-22T10:22:24.423Z,13.23
2018-07-22T10:24:51.148Z,11.87
2018-07-22T10:27:17.909Z,12.97
2018-07-22T10:29:44.683Z,12.73
2018-07-22T10:32:11.451Z,13.33
2018-07-22T10:34:38.175Z,11.87
2018-07-22T10:37:05.017Z,12.57
2018-07-22T10:39:31.803Z,12.57
2018-07-22T10:41:58.571Z,12.93
2018-07-22T10:44:25.303Z,13.37
2018-07-22T10:46:52.054Z,12.43
2018-07-22T10:49:18.779Z,12.63
2018-07-22T10:51:45.539Z,12.13
2018-07-22T10:54:12.303Z,11.53
2018-07-22T10:56:39.078Z,13.50
2018-07-22T10:59:05.848Z,13.53
2018-07-22T11:01:32.620Z,13.47
2018-07-22T11:03:59.419Z,16.35
2018-07-22T11:06:27.015Z,16.20
2018-07-22T11:08:53.793Z,13.73
2018-07-22T11:11:20.535Z,14.67
2018-07-22T11:13:47.312Z,14.33
2018-07-22T11:16:14.063Z,12.63
2018-07-22T11:18:40.834Z,13.63
2018-07-22T11:21:07.636Z,14.50
2018-07-22T11:23:34.496Z,11.67
2018-07-22T11:26:02.014Z,10.87
2018-07-22T11:28:28.815Z,10.10
2018-07-22T11:30:55.571Z,9.43
2018-07-22T11:33:22.315Z,10.25
2018-07-22T11:35:49.091Z,9.13
2018-07-22T11:38:15.868Z,9.27
2018-07-22T11:40:42.689Z,9.47
2018-07-22T11:43:09.436Z,8.47
2018-07-22T11:45:36.220Z,9.90
2018-07-22T11:48:02.971Z,12.30
2018-07-22T11:50:29.777Z,10.73
2018-07-22T11:52:56.526Z,10.23
2018-07-22T11:55:23.319Z,13.50
2018-07-22T11:57:50.094Z,10.30
2018-07-22T12:00:16.882Z,9.83
2018-07-22T12:02:43.599Z,9.67
2018-07-22T12:05:10.387Z,10.23
2018-07-22T12:07:37.179Z,10.67
2018-07-22T12:10:04.015Z,10.20
2018-07-22T12:12:30.825Z,10.10
2018-07-22T12:14:57.617Z,10.50
2018-07-22T12:17:24.441Z,11.20
2018-07-22T12:19:51.208Z,11.53
2018-07-22T12:22:18.035Z,12.33
2018-07-22T12:24:44.789Z,12.40
2018-07-22T12:27:11.556Z,12.17
2018-07-22T12:29:38.525Z,12.60
2018-07-22T12:32:05.367Z,11.70
2018-07-22T12:34:32.195Z,11.53
2018-07-22T12:37:00.389Z,10.87
2018-07-22T12:39:27.503Z,10.23
2018-07-22T12:41:54.483Z,10.70
2018-07-22T12:44:21.604Z,10.30
2018-07-22T12:46:48.586Z,10.27
2018-07-22T12:49:15.458Z,11.60
2018-07-22T12:54:30.619Z,10.03
2018-07-22T12:56:58.040Z,10.87
2018-07-22T12:59:28.999Z,10.43
2018-07-22T13:01:55.398Z,11.07
2018-07-22T13:04:22.290Z,11.40
2018-07-22T13:06:49.295Z,11.80
2018-07-22T13:09:16.240Z,13.30
2018-07-22T13:11:43.248Z,13.70
2018-07-22T13:14:10.602Z,10.20
2018-07-22T13:16:38.084Z,9.90
2018-07-22T13:19:05.089Z,10.57
2018-07-22T13:21:32.283Z,10.00
2018-07-22T13:23:59.168Z,9.37
2018-07-22T13:26:26.434Z,10.73
2018-07-22T13:28:53.386Z,10.77
2018-07-22T13:31:20.544Z,10.67
2018-07-22T13:33:47.519Z,11.07
2018-07-22T13:36:14.498Z,10.33
2018-07-22T13:38:41.609Z,9.93
2018-07-22T13:41:08.651Z,9.63
2018-07-22T13:43:35.812Z,9.80
2018-07-22T13:46:02.764Z,10.77
2018-07-22T13:48:29.976Z,10.70
2018-07-22T13:50:56.886Z,10.43
2018-07-22T13:53:23.770Z,10.95
2018-07-22T13:55:50.582Z,9.93
2018-07-22T13:58:17.460Z,9.40
2018-07-22T14:00:44.490Z,9.60
2018-07-22T14:03:11.555Z,9.67
2018-07-22T14:05:38.350Z,8.33
2018-07-22T14:08:05.208Z,9.33
2018-07-22T14:10:33.052Z,10.33
2018-07-22T14:12:59.872Z,10.57
2018-07-22T14:15:26.782Z,10.00
2018-07-22T14:17:53.586Z,9.30
2018-07-22T14:20:20.399Z,10.00
2018-07-22T14:22:47.220Z,10.97
2018-07-22T14:25:14.370Z,10.13
2018-07-22T14:27:41.183Z,10.50
2018-07-22T14:30:07.964Z,12.20
2018-07-22T14:32:34.814Z,11.10
2018-07-22T14:35:02.141Z,10.07
2018-07-22T14:37:30.714Z,11.53
2018-07-22T14:39:59.653Z,10.10
2018-07-22T14:42:26.575Z,12.23
2018-07-22T14:44:53.360Z,10.93
2018-07-22T14:47:24.366Z,11.37
2018-07-22T14:49:51.376Z,11.07
2018-07-22T14:52:18.645Z,10.80
2018-07-22T14:54:48.693Z,10.33
2018-07-22T14:57:17.857Z,10.33
2018-07-22T14:59:47.392Z,10.97
2018-07-22T15:02:14.141Z,10.13
2018-07-22T15:04:40.909Z,10.13
2018-07-22T15:07:08.026Z,9.30
2018-07-22T15:09:35.249Z,9.90
2018-07-22T15:12:02.048Z,9.93
2018-07-22T15:14:29.066Z,9.97
2018-07-22T15:16:55.948Z,8.67
2018-07-22T15:19:22.838Z,9.77
2018-07-22T15:21:49.668Z,8.73
2018-07-22T15:24:17.409Z,8.77
2018-07-22T15:26:44.221Z,8.60
2018-07-22T15:29:11.100Z,8.83
2018-07-22T15:31:38.716Z,9.00
2018-07-22T15:34:05.541Z,8.20
2018-07-22T15:36:32.586Z,8.83
2018-07-22T15:39:01.758Z,8.67
2018-07-22T15:41:30.068Z,8.73
2018-07-22T15:43:56.851Z,9.23
2018-07-22T15:46:23.764Z,8.70
2018-07-22T15:48:50.912Z,9.13
2018-07-22T15:51:20.235Z,9.20
2018-07-22T15:53:47.070Z,10.00
2018-07-22T15:56:15.249Z,10.27
2018-07-22T15:58:42.309Z,10.03
2018-07-22T16:01:10.861Z,9.73
2018-07-22T16:03:38.087Z,9.80
2018-07-22T16:06:05.126Z,9.97
2018-07-22T16:08:31.911Z,9.40
2018-07-22T16:10:59.356Z,9.07
2018-07-22T16:13:26.362Z,8.43
2018-07-22T16:15:53.145Z,8.90
2018-07-22T16:18:19.933Z,8.60
2018-07-22T16:20:47.129Z,8.30
2018-07-22T16:23:14.045Z,9.20
2018-07-22T16:25:41.057Z,8.93
2018-07-22T16:28:07.849Z,9.13
2018-07-22T16:30:34.800Z,8.90
2018-07-22T16:33:01.885Z,10.95
2018-07-22T16:35:28.740Z,9.40
2018-07-22T16:37:56.974Z,8.00
2018-07-22T16:40:23.913Z,9.30
2018-07-22T16:42:51.142Z,9.73
2018-07-22T16:45:18.033Z,9.70
2018-07-22T16:47:45.537Z,9.07
2018-07-22T16:50:12.490Z,10.90
2018-07-22T16:52:39.359Z,8.47
2018-07-22T16:55:06.165Z,8.87
2018-07-22T16:57:34.029Z,8.77
2018-07-22T17:00:01.033Z,9.83
2018-07-22T17:02:27.879Z,10.70
2018-07-22T17:04:54.643Z,11.38
2018-07-22T17:07:21.905Z,11.47
2018-07-22T17:09:50.292Z,10.43
2018-07-22T17:12:17.582Z,10.33
2018-07-22T17:14:44.824Z,11.27
2018-07-22T17:17:11.631Z,12.97
2018-07-22T17:19:38.508Z,12.40
2018-07-22T17:22:05.384Z,12.17
2018-07-22T17:24:32.171Z,12.50
2018-07-22T17:26:59.026Z,12.57
2018-07-22T17:29:25.799Z,11.37
2018-07-22T17:31:52.852Z,12.60
2018-07-22T17:34:19.720Z,11.47
2018-07-22T17:36:46.536Z,11.63
2018-07-22T17:39:13.297Z,11.80
2018-07-22T17:41:40.587Z,12.00
2018-07-22T17:44:07.792Z,12.77
2018-07-22T17:46:34.568Z,11.20
2018-07-22T17:49:02.057Z,11.33
2018-07-22T17:51:29.152Z,11.50
2018-07-22T17:53:56.028Z,11.10
2018-07-22T17:56:22.802Z,13.75
2018-07-22T17:58:49.695Z,10.93
2018-07-22T18:01:16.494Z,10.77
2018-07-22T18:03:43.323Z,10.23
2018-07-22T18:06:10.113Z,10.20
2018-07-22T18:08:36.931Z,10.53
2018-07-22T18:11:03.703Z,10.57
2018-07-22T18:13:31.031Z,11.97
2018-07-22T18:15:57.799Z,12.23
2018-07-22T18:18:24.583Z,10.60
2018-07-22T18:20:51.359Z,10.50
2018-07-22T18:23:18.152Z,10.83
2018-07-22T18:25:45.594Z,10.77
2018-07-22T18:28:13.036Z,10.63
2018-07-22T18:30:39.951Z,9.97
2018-07-22T18:33:06.748Z,9.70
2018-07-22T18:35:34.051Z,11.13
2018-07-22T18:38:01.533Z,10.97
2018-07-22T18:40:28.375Z,10.97
2018-07-22T18:42:56.062Z,10.80
2018-07-22T18:45:23.038Z,11.50
2018-07-22T18:47:49.860Z,12.37
2018-07-22T18:50:16.796Z,11.10
2018-07-22T18:52:43.577Z,11.30
2018-07-22T18:55:10.384Z,10.50
2018-07-22T18:57:37.740Z,12.03
2018-07-22T19:00:05.891Z,12.17
2018-07-22T19:02:33.031Z,12.47
2018-07-22T19:04:59.951Z,12.17
2018-07-22T19:07:26.957Z,11.90
2018-07-22T19:09:53.822Z,10.50
2018-07-22T19:12:20.600Z,11.53
2018-07-22T19:14:47.403Z,10.33
2018-07-22T19:17:14.451Z,10.83
2018-07-22T19:19:41.621Z,11.30
2018-07-22T19:22:08.483Z,12.50
2018-07-22T19:24:35.334Z,12.50
2018-07-22T19:27:02.250Z,11.53
2018-07-22T19:29:29.048Z,10.43
2018-07-22T19:31:55.911Z,10.33
2018-07-22T19:34:22.717Z,10.60
2018-07-22T19:36:50.135Z,11.00
2018-07-22T19:39:17.418Z,9.53
2018-07-22T19:41:44.519Z,9.83
2018-07-22T19:44:11.314Z,10.20
2018-07-22T19:46:38.140Z,9.90
2018-07-22T19:49:05.019Z,9.70
2018-07-22T19:51:31.831Z,11.22
2018-07-22T19:53:58.723Z,9.90
2018-07-22T19:56:25.644Z,10.57
2018-07-22T19:58:52.479Z,9.70
2018-07-22T20:01:19.616Z,10.20
2018-07-22T20:03:46.542Z,10.07
2018-07-22T20:06:13.368Z,10.30
2018-07-22T20:08:40.180Z,11.03
2018-07-22T20:11:07.420Z,10.80
2018-07-22T20:13:34.652Z,10.70
2018-07-22T20:16:01.950Z,9.77
2018-07-22T20:18:28.825Z,10.17
2018-07-22T20:20:55.720Z,10.20
2018-07-22T20:23:22.542Z,10.07
2018-07-22T20:25:49.628Z,10.40
2018-07-22T20:28:16.557Z,10.77
2018-07-22T20:30:43.648Z,11.10
2018-07-22T20:33:11.307Z,10.10
2018-07-22T20:35:38.096Z,11.75
2018-07-22T20:38:04.974Z,10.77
2018-07-22T20:40:31.936Z,10.47
2018-07-22T20:42:58.756Z,11.30
2018-07-22T20:45:25.946Z,10.07
2018-07-22T20:47:52.730Z,9.87
2018-07-22T20:50:19.626Z,10.97
2018-07-22T20:52:47.290Z,11.47
2018-07-22T20:55:14.084Z,13.50
2018-07-22T20:57:40.889Z,11.50
2018-07-22T21:00:08.580Z,10.73
2018-07-22T21:02:35.415Z,9.90
2018-07-22T21:05:02.558Z,10.80
2018-07-22T21:07:29.459Z,12.53
2018-07-22T21:09:56.461Z,10.63
2018-07-22T21:12:46.016Z,10.63
2018-07-22T21:15:13.954Z,11.07
2018-07-22T21:17:40.921Z,11.37
2018-07-22T21:20:07.990Z,11.77
2018-07-22T21:22:34.990Z,11.10
2018-07-22T21:25:07.634Z,14.15
2018-07-22T21:27:35.059Z,12.57
2018-07-22T21:30:02.475Z,14.68
2018-07-22T21:32:29.306Z,12.73
2018-07-22T21:35:10.989Z,12.83
2018-07-22T21:37:38.530Z,13.03
2018-07-22T21:40:08.642Z,13.73
2018-07-22T21:42:35.533Z,12.90
2018-07-22T21:45:03.229Z,13.37
2018-07-22T21:47:32.960Z,11.30
2018-07-22T21:49:59.848Z,11.23
2018-07-22T21:52:28.722Z,11.90
2018-07-22T21:54:55.575Z,14.73
2018-07-22T21:57:22.445Z,13.53
2018-07-22T21:59:49.272Z,12.73
2018-07-22T22:02:17.996Z,11.27
2018-07-22T22:04:45.230Z,11.73
2018-07-22T22:07:12.227Z,11.97
2018-07-22T22:09:39.106Z,12.97
2018-07-22T22:12:05.847Z,13.17
2018-07-22T22:14:32.647Z,11.87
2018-07-22T22:16:59.508Z,11.80
2018-07-22T22:19:27.255Z,12.07
2018-07-22T22:21:54.114Z,11.73
2018-07-22T22:24:21.029Z,12.00
2018-07-22T22:26:47.932Z,12.40
2018-07-22T22:29:15.993Z,13.00
2018-07-22T22:31:46.641Z,14.03
2018-07-22T22:34:13.567Z,14.60
2018-07-22T22:36:40.768Z,13.63
2018-07-22T22:39:08.975Z,13.20
2018-07-22T22:41:35.904Z,12.63
2018-07-22T22:44:02.895Z,13.63
2018-07-22T22:46:29.654Z,13.67
2018-07-22T22:48:56.471Z,13.47
2018-07-22T22:51:23.319Z,15.13
2018-07-22T22:53:50.708Z,13.93
2018-07-22T22:56:17.476Z,13.07
2018-07-22T22:58:56.019Z,16.70
2018-07-22T23:01:23.276Z,12.83
2018-07-22T23:03:50.066Z,13.50
2018-07-22T23:06:16.843Z,13.50
2018-07-22T23:08:43.712Z,14.00
2018-07-22T23:11:10.490Z,14.60
2018-07-22T23:13:38.123Z,13.30
2018-07-22T23:16:05.017Z,12.67
2018-07-22T23:18:31.807Z,14.07
2018-07-22T23:20:58.632Z,14.57
2018-07-22T23:23:25.451Z,15.63
2018-07-22T23:25:52.271Z,13.10
2018-07-22T23:28:19.026Z,13.87
2018-07-22T23:30:45.800Z,14.77
2018-07-22T23:33:12.595Z,12.73
2018-07-22T23:35:39.431Z,11.97
2018-07-22T23:38:06.167Z,12.53
2018-07-22T23:40:33.531Z,13.13
2018-07-22T23:43:00.364Z,13.03
2018-07-22T23:45:27.143Z,12.83
2018-07-22T23:47:54.072Z,15.93
2018-07-22T23:50:20.847Z,14.03
2018-07-22T23:52:47.626Z,14.60
2018-07-22T23:55:14.364Z,12.93
2018-07-22T23:57:41.144Z,12.37
